City Of Chicago — WDC2646 — position and weather

sailwx.info

Track history (hours):
 
Tides and Currents Weather Stations Pressure Air Temp Water Temp Dewpoint Dewpoint Depression Visibility Wind Speed Wind Dir Waves Ship Positions

City Of Chicago

Owner: Kirby Inland Marine LP, Houston, TX. More information available from US FCC via Universal Licensing System and Coast Guard Vessel Documentation Center.

Last reported at 2018-May-08 04:01 UTC. Time now 2018-Jul-19 13:16 UTC.
Position N 32°55' W 091°04'.
Warning: this ship's position is months out of date.

Length 306 m; draft 2.7 m.

Type: . MMSI: 366995960.

Date/timePositionNaut miles runAvg speedWind from/ knotsBaromVisibWave heightAir tempDewpointWater temp
2018-May-08 04:01N 32°55' W 091°04'1 4.1
2018-May-08 03:45N 32°54' W 091°04'3 3.7
2018-May-08 02:52N 32°52' W 091°06'3 4.1
2018-May-08 02:14N 32°50' W 091°08'1 4.4
2018-May-08 02:00N 32°49' W 091°09'2 4.2
2018-May-08 01:30N 32°47' W 091°09'2 3.8
2018-May-08 01:00N 32°45' W 091°09'2 3.3
2018-May-08 00:27N 32°44' W 091°07'2 4.4
2018-May-08 00:00N 32°44' W 091°05'2 3.7
2018-May-07 23:29N 32°42' W 091°04'2 3.9
2018-May-07 22:55N 32°41' W 091°06'1 3.4
2018-May-07 22:30N 32°40' W 091°07'4 4.8
2018-May-07 21:46N 32°37' W 091°09'1 4.6
2018-May-07 21:30N 32°36' W 091°08'2 4.2
2018-May-07 21:00N 32°34' W 091°06'2 4.4
2018-May-07 20:30N 32°32' W 091°06'3 5.2
2018-May-07 20:00N 32°29' W 091°07'2 3.9
2018-May-07 19:30N 32°28' W 091°06'2 4.7
2018-May-07 19:00N 32°27' W 091°04'2 4.0
2018-May-07 18:30N 32°26' W 091°01'2 4.2
2018-May-07 18:00N 32°24' W 090°60'3 4.9
2018-May-07 17:30N 32°22' W 091°00'2 3.3
2018-May-07 17:00N 32°21' W 090°59'2 4.8
2018-May-07 16:30N 32°21' W 090°56'2 3.9
2018-May-07 16:00N 32°19' W 090°54'2 3.1
2018-May-07 15:30N 32°18' W 090°55'0 0.0
2018-May-07 15:00N 32°18' W 090°55'2 3.7
2018-May-07 14:30N 32°17' W 090°57'2 4.4
2018-May-07 14:00N 32°15' W 090°58'3 4.9
2018-May-07 13:30N 32°13' W 090°59'2 4.3
2018-May-07 13:00N 32°11' W 090°60'2 4.3
2018-May-07 12:30N 32°08' W 091°00'2 4.2
2018-May-07 12:00N 32°07' W 091°02'2 3.6
2018-May-07 11:30N 32°08' W 091°04'2 3.3
2018-May-07 11:00N 32°07' W 091°06'2 4.5
2018-May-07 10:30N 32°05' W 091°04'2 4.6
2018-May-07 10:00N 32°03' W 091°04'2 4.7
2018-May-07 09:30N 32°01' W 091°05'2 4.1
2018-May-07 09:00N 31°59' W 091°06'2 3.9
2018-May-07 08:30N 31°59' W 091°09'2 3.9
2018-May-07 08:00N 31°58' W 091°11'2 3.7
2018-May-07 07:30N 31°56' W 091°11'3 4.8
2018-May-07 06:54N 31°54' W 091°12'1 3.3
2018-May-07 06:30N 31°53' W 091°14'3 4.1
2018-May-07 05:54N 31°51' W 091°16'2 4.3
2018-May-07 05:30N 31°51' W 091°18'2 4.0
2018-May-07 04:54N 31°51' W 091°21'3 4.7
2018-May-07 04:14N 31°47' W 091°21'  
2018-Apr-29 16:53N 31°59' W 091°10'411.3
2018-Apr-29 16:30N 31°60' W 091°05'510.1
2018-Apr-29 15:58N 32°05' W 091°05'3 5.5
2018-Apr-29 15:30N 32°08' W 091°04'4 8.2
2018-Apr-29 15:00N 32°10' W 091°00'611.1
2018-Apr-29 14:30N 32°15' W 090°58'511.0
2018-Apr-29 14:00N 32°20' W 090°54'4 8.7
2018-Apr-29 13:30N 32°21' W 090°59'0 0.1
2018-Apr-29 13:00N 32°21' W 090°59'0 0.0
2018-Apr-29 12:30N 32°21' W 090°59'0 0.0
2018-Apr-29 12:00N 32°21' W 090°59'0 0.0
2018-Apr-29 11:31N 32°21' W 090°59'0 0.0
2018-Apr-29 11:01N 32°21' W 090°59'1 2.6
2018-Apr-29 10:30N 32°22' W 091°00'4 7.7
2018-Apr-29 10:01N 32°26' W 091°01'510.3
2018-Apr-29 09:30N 32°28' W 091°06'5 9.2
2018-Apr-29 08:59N 32°33' W 091°06'5 9.8
2018-Apr-29 08:30N 32°37' W 091°09'5 8.7
2018-Apr-29 07:59N 32°40' W 091°06'4 7.7
2018-Apr-29 07:30N 32°44' W 091°05'  
Track history (hours):
 
Tides and Currents Weather Stations Pressure Air Temp Water Temp Dewpoint Dewpoint Depression Visibility Wind Speed Wind Dir Waves Ship Positions

City Of Chicago

Owner: Kirby Inland Marine LP, Houston, TX. More information available from US FCC via Universal Licensing System and Coast Guard Vessel Documentation Center.

Last reported at 2018-May-08 04:01 UTC. Time now 2018-Jul-19 13:16 UTC.
Position N 32°55' W 091°04'.
Warning: this ship's position is months out of date.

Length 306 m; draft 2.7 m.

Type: . MMSI: 366995960.

Date/timePositionNaut miles runAvg speedWind from/ knotsBaromVisibWave heightAir tempDewpointWater temp
2018-May-08 04:01N 32°55' W 091°04'1 4.1
2018-May-08 03:45N 32°54' W 091°04'3 3.7
2018-May-08 02:52N 32°52' W 091°06'3 4.1
2018-May-08 02:14N 32°50' W 091°08'1 4.4
2018-May-08 02:00N 32°49' W 091°09'2 4.2
2018-May-08 01:30N 32°47' W 091°09'2 3.8
2018-May-08 01:00N 32°45' W 091°09'2 3.3
2018-May-08 00:27N 32°44' W 091°07'2 4.4
2018-May-08 00:00N 32°44' W 091°05'2 3.7
2018-May-07 23:29N 32°42' W 091°04'2 3.9
2018-May-07 22:55N 32°41' W 091°06'1 3.4
2018-May-07 22:30N 32°40' W 091°07'4 4.8
2018-May-07 21:46N 32°37' W 091°09'1 4.6
2018-May-07 21:30N 32°36' W 091°08'2 4.2
2018-May-07 21:00N 32°34' W 091°06'2 4.4
2018-May-07 20:30N 32°32' W 091°06'3 5.2
2018-May-07 20:00N 32°29' W 091°07'2 3.9
2018-May-07 19:30N 32°28' W 091°06'2 4.7
2018-May-07 19:00N 32°27' W 091°04'2 4.0
2018-May-07 18:30N 32°26' W 091°01'2 4.2
2018-May-07 18:00N 32°24' W 090°60'3 4.9
2018-May-07 17:30N 32°22' W 091°00'2 3.3
2018-May-07 17:00N 32°21' W 090°59'2 4.8
2018-May-07 16:30N 32°21' W 090°56'2 3.9
2018-May-07 16:00N 32°19' W 090°54'2 3.1
2018-May-07 15:30N 32°18' W 090°55'0 0.0
2018-May-07 15:00N 32°18' W 090°55'2 3.7
2018-May-07 14:30N 32°17' W 090°57'2 4.4
2018-May-07 14:00N 32°15' W 090°58'3 4.9
2018-May-07 13:30N 32°13' W 090°59'2 4.3
2018-May-07 13:00N 32°11' W 090°60'2 4.3
2018-May-07 12:30N 32°08' W 091°00'2 4.2
2018-May-07 12:00N 32°07' W 091°02'2 3.6
2018-May-07 11:30N 32°08' W 091°04'2 3.3
2018-May-07 11:00N 32°07' W 091°06'2 4.5
2018-May-07 10:30N 32°05' W 091°04'2 4.6
2018-May-07 10:00N 32°03' W 091°04'2 4.7
2018-May-07 09:30N 32°01' W 091°05'2 4.1
2018-May-07 09:00N 31°59' W 091°06'2 3.9
2018-May-07 08:30N 31°59' W 091°09'2 3.9
2018-May-07 08:00N 31°58' W 091°11'2 3.7
2018-May-07 07:30N 31°56' W 091°11'3 4.8
2018-May-07 06:54N 31°54' W 091°12'1 3.3
2018-May-07 06:30N 31°53' W 091°14'3 4.1
2018-May-07 05:54N 31°51' W 091°16'2 4.3
2018-May-07 05:30N 31°51' W 091°18'2 4.0
2018-May-07 04:54N 31°51' W 091°21'3 4.7
2018-May-07 04:14N 31°47' W 091°21'  
2018-Apr-29 16:53N 31°59' W 091°10'411.3
2018-Apr-29 16:30N 31°60' W 091°05'510.1
2018-Apr-29 15:58N 32°05' W 091°05'3 5.5
2018-Apr-29 15:30N 32°08' W 091°04'4 8.2
2018-Apr-29 15:00N 32°10' W 091°00'611.1
2018-Apr-29 14:30N 32°15' W 090°58'511.0
2018-Apr-29 14:00N 32°20' W 090°54'4 8.7
2018-Apr-29 13:30N 32°21' W 090°59'0 0.1
2018-Apr-29 13:00N 32°21' W 090°59'0 0.0
2018-Apr-29 12:30N 32°21' W 090°59'0 0.0
2018-Apr-29 12:00N 32°21' W 090°59'0 0.0
2018-Apr-29 11:31N 32°21' W 090°59'0 0.0
2018-Apr-29 11:01N 32°21' W 090°59'1 2.6
2018-Apr-29 10:30N 32°22' W 091°00'4 7.7
2018-Apr-29 10:01N 32°26' W 091°01'510.3
2018-Apr-29 09:30N 32°28' W 091°06'5 9.2
2018-Apr-29 08:59N 32°33' W 091°06'5 9.8
2018-Apr-29 08:30N 32°37' W 091°09'5 8.7
2018-Apr-29 07:59N 32°40' W 091°06'4 7.7
2018-Apr-29 07:30N 32°44' W 091°05'  

Dump ship's entire track history